Time;durP1;ratioP1;P1;durP2;ratioP2;P2;SDS_P1;SDS_P2;PMS_P1;PMS_P2;Temp;Humidity;BMP_temperature;BMP_pressure;BME280_temperature;BME280_humidity;BME280_pressure;Samples;Min_cycle;Max_cycle;Signal;HPM_P1;HPM_P2
2024/01/04 00:01:12;;;;;;;;;;;;;;;;;;;;;
2024/01/04 00:03:53;;;;;;;15.27;2.00;;;;;;;6.72;100.00;98645.72;4855121;29;20044;-95
2024/01/04 00:06:27;;;;;;;11.98;2.20;;;;;;;6.68;100.00;98641.81;4903938;29;20138;-93
2024/01/04 00:08:56;;;;;;;16.30;1.95;;;;;;;6.62;100.00;98642.47;4920166;29;20035;-95
2024/01/04 00:11:53;;;;;;;13.27;1.88;;;;;;;6.55;100.00;98645.75;4930913;29;20473;-94
2024/01/04 00:14:33;;;;;;;8.65;1.67;;;;;;;6.53;100.00;98645.06;4922340;29;20503;-95
2024/01/04 00:17:04;;;;;;;18.58;1.85;;;;;;;6.49;100.00;98637.69;4927350;29;20047;-95
2024/01/04 00:19:32;;;;;;;10.55;1.95;;;;;;;6.44;100.00;98644.25;4921310;29;20126;-95
2024/01/04 00:21:58;;;;;;;14.55;1.52;;;;;;;6.41;100.00;98646.38;4934692;29;20118;-96
2024/01/04 00:24:24;;;;;;;11.55;1.92;;;;;;;6.37;100.00;98642.44;4930616;29;20031;-94
2024/01/04 00:26:50;;;;;;;16.40;2.53;;;;;;;6.30;100.00;98640.47;4921629;29;20031;-96
2024/01/04 00:29:25;;;;;;;17.25;2.22;;;;;;;6.33;100.00;98652.44;4915651;29;20039;-95
2024/01/04 00:32:15;;;;;;;17.20;2.70;;;;;;;6.20;100.00;98651.09;4927599;28;20037;-96
2024/01/04 00:34:56;;;;;;;13.07;1.95;;;;;;;6.19;100.00;98652.09;4938721;29;20051;-95
2024/01/04 00:37:31;;;;;;;19.77;3.30;;;;;;;6.06;100.00;98655.16;4923979;29;20066;-95
2024/01/04 00:40:03;;;;;;;16.65;4.03;;;;;;;6.07;100.00;98661.22;4924487;29;20039;-94
2024/01/04 00:42:46;;;;;;;18.08;3.97;;;;;;;6.05;100.00;98656.13;4938206;29;20365;-95
2024/01/04 00:45:50;;;;;;;19.90;2.17;;;;;;;6.01;100.00;98654.78;4916651;28;20389;-95
2024/01/04 00:48:33;;;;;;;18.00;2.08;;;;;;;6.05;100.00;98663.19;4937225;28;20059;-95
2024/01/04 00:54:27;;;;;;;24.63;2.00;;;;;;;5.95;100.00;98652.78;4956000;28;20046;-94
2024/01/04 00:57:42;;;;;;;24.60;2.97;;;;;;;5.88;100.00;98662.25;4964533;28;20049;-96
2024/01/04 01:01:29;;;;;;;;;;;;;;;;;;;;;
2024/01/04 01:04:48;;;;;;;19.23;1.92;;;;;;;5.82;100.00;98664.56;4964306;28;20034;-93
2024/01/04 01:07:22;;;;;;;13.32;2.53;;;;;;;5.82;100.00;98661.94;4956628;28;20038;-94
2024/01/04 01:09:54;;;;;;;19.75;2.13;;;;;;;5.87;100.00;98666.69;4972582;28;20042;-94
2024/01/04 01:12:23;;;;;;;13.02;1.88;;;;;;;5.74;100.00;98656.66;4959732;28;20045;-95
2024/01/04 01:15:14;;;;;;;15.00;1.85;;;;;;;5.79;100.00;98650.94;4947333;28;20065;-94
2024/01/04 01:18:31;;;;;;;15.57;2.58;;;;;;;5.77;100.00;98666.00;4962240;28;20540;-94
2024/01/04 01:24:13;;;;;;;18.35;2.40;;;;;;;5.73;100.00;98662.06;4950411;28;20085;-93
2024/01/04 01:30:08;;;;;;;18.63;3.03;;;;;;;5.65;100.00;98655.81;4957907;28;20112;-95
2024/01/04 01:32:50;;;;;;;12.80;1.75;;;;;;;5.72;100.00;98676.94;4960561;28;20032;-95
2024/01/04 01:37:05;;;;;;;20.23;2.72;;;;;;;5.74;100.00;98677.63;4958338;28;20126;-95
2024/01/04 01:41:00;;;;;;;11.65;1.77;;;;;;;5.69;100.00;98675.47;4972918;28;20030;-96
2024/01/04 02:00:09;;;;;;;17.42;2.58;;;;;;;5.78;100.00;98681.56;4935305;29;20078;-95
2024/01/04 02:03:57;;;;;;;10.32;1.85;;;;;;;5.80;100.00;98682.22;4853451;29;20206;-91
2024/01/04 02:06:25;;;;;;;16.63;2.78;;;;;;;5.73;100.00;98681.22;4892159;29;20071;-92
2024/01/04 02:09:08;;;;;;;12.52;2.33;;;;;;;5.64;100.00;98676.94;4910887;29;20425;-96
2024/01/04 02:11:49;;;;;;;17.00;2.33;;;;;;;5.55;100.00;98684.75;4888909;29;20067;-95
2024/01/04 02:14:34;;;;;;;19.50;4.18;;;;;;;5.54;100.00;98674.41;4931759;28;20057;-95
2024/01/04 02:17:06;;;;;;;20.17;2.10;;;;;;;5.45;100.00;98671.75;4945386;28;20034;-92
2024/01/04 02:19:39;;;;;;;17.02;2.22;;;;;;;5.36;100.00;98677.09;4965449;28;20050;-92
2024/01/04 02:22:13;;;;;;;16.30;2.72;;;;;;;5.33;100.00;98683.47;4959131;28;20057;-94
2024/01/04 02:24:42;;;;;;;25.40;2.05;;;;;;;5.31;100.00;98683.63;4945126;28;20049;-94
2024/01/04 02:28:01;;;;;;;15.23;1.60;;;;;;;5.39;100.00;98688.09;4964012;28;20034;-94
2024/01/04 02:30:36;;;;;;;16.40;1.95;;;;;;;5.32;100.00;98687.88;4921644;29;20122;-95
2024/01/04 02:33:19;;;;;;;9.57;1.60;;;;;;;5.27;100.00;98691.94;4905680;29;20063;-95
2024/01/04 02:35:45;;;;;;;13.60;2.05;;;;;;;5.17;100.00;98690.25;4926165;28;20055;-95
2024/01/04 02:38:13;;;;;;;12.70;1.80;;;;;;;5.21;100.00;98702.03;4956411;28;20042;-91
2024/01/04 02:40:55;;;;;;;17.45;3.75;;;;;;;5.16;100.00;98712.16;4966272;28;20038;-92
2024/01/04 02:43:24;;;;;;;8.88;1.50;;;;;;;5.12;100.00;98710.00;4945232;28;20030;-92
2024/01/04 02:45:52;;;;;;;13.73;1.60;;;;;;;5.17;100.00;98718.22;4944353;28;20050;-92
2024/01/04 02:48:18;;;;;;;15.02;1.83;;;;;;;5.13;100.00;98722.13;4942936;28;20047;-95
2024/01/04 02:51:07;;;;;;;11.77;2.13;;;;;;;5.17;100.00;98732.16;4956378;28;20026;-95
2024/01/04 02:53:37;;;;;;;14.02;2.08;;;;;;;5.03;100.00;98730.06;4939027;28;20047;-95
2024/01/04 02:56:27;;;;;;;12.35;1.70;;;;;;;5.06;100.00;98727.97;4957574;28;20046;-96
2024/01/04 02:58:59;;;;;;;11.10;1.70;;;;;;;4.99;100.00;98736.56;4959000;28;20035;-94
2024/01/04 03:01:43;;;;;;;8.75;1.45;;;;;;;5.05;100.00;98744.63;4931353;28;20570;-95
2024/01/04 03:04:34;;;;;;;12.25;1.80;;;;;;;5.12;100.00;98749.28;4955109;28;20542;-93
2024/01/04 03:07:10;;;;;;;18.90;2.20;;;;;;;5.06;100.00;98740.25;4947404;28;20039;-92
2024/01/04 03:09:39;;;;;;;12.48;2.05;;;;;;;5.12;100.00;98757.97;4947121;28;20034;-92
2024/01/04 03:12:18;;;;;;;15.10;1.58;;;;;;;5.14;100.00;98753.41;4939057;28;20062;-93
2024/01/04 03:15:07;;;;;;;19.92;2.58;;;;;;;5.11;100.00;98748.47;4940581;28;20043;-93
2024/01/04 03:18:00;;;;;;;9.18;1.33;;;;;;;5.15;100.00;98754.22;4949921;28;20039;-96
2024/01/04 03:20:41;;;;;;;16.27;2.15;;;;;;;5.13;100.00;98762.22;4941005;28;20122;-96
2024/01/04 03:23:13;;;;;;;13.77;2.70;;;;;;;5.16;100.00;98766.34;4945739;28;20138;-96
2024/01/04 03:26:16;;;;;;;10.00;1.30;;;;;;;5.13;100.00;98761.41;4951145;28;20039;-96
2024/01/04 03:29:21;;;;;;;8.90;2.00;;;;;;;5.06;100.00;98762.03;4976434;28;20135;-96
2024/01/04 03:32:05;;;;;;;14.13;1.88;;;;;;;5.07;100.00;98768.06;4928667;28;20088;-96
2024/01/04 03:34:37;;;;;;;18.92;2.25;;;;;;;5.12;100.00;98767.59;4922797;28;20042;-96
2024/01/04 03:37:15;;;;;;;16.92;2.03;;;;;;;5.06;100.00;98759.41;4916401;28;20066;-93
2024/01/04 03:39:41;;;;;;;23.90;2.22;;;;;;;5.07;100.00;98768.06;4921483;28;20045;-93
2024/01/04 03:42:10;;;;;;;9.48;1.65;;;;;;;5.05;100.00;98770.81;4937107;28;20054;-93
2024/01/04 03:44:37;;;;;;;12.70;3.03;;;;;;;5.01;100.00;98774.72;4924748;28;20069;-93
2024/01/04 03:47:13;;;;;;;8.98;1.50;;;;;;;4.99;100.00;98776.66;4944530;28;20053;-93
2024/01/04 03:49:42;;;;;;;9.82;1.33;;;;;;;4.98;100.00;98782.88;4937066;28;20083;-92
2024/01/04 03:52:08;;;;;;;16.00;1.80;;;;;;;4.96;100.00;98782.19;4916321;28;20047;-94
2024/01/04 03:55:01;;;;;;;9.88;1.73;;;;;;;4.92;100.00;98779.06;4924275;28;20113;-93
2024/01/04 03:57:27;;;;;;;5.88;1.30;;;;;;;4.89;100.00;98789.81;4935487;28;20047;-93
2024/01/04 03:59:53;;;;;;;13.23;1.63;;;;;;;4.82;100.00;98775.69;4936703;29;20031;-93
2024/01/04 04:02:19;;;;;;;18.33;3.38;;;;;;;4.80;100.00;98786.31;4935330;28;20054;-96
2024/01/04 04:04:45;;;;;;;16.25;1.58;;;;;;;4.80;100.00;98790.72;4944307;28;20161;-96
2024/01/04 04:07:11;;;;;;;14.13;2.42;;;;;;;4.78;100.00;98790.88;4955005;28;20074;-93
2024/01/04 04:09:36;;;;;;;14.18;1.65;;;;;;;4.78;100.00;98785.63;4955888;28;20133;-93
2024/01/04 04:12:03;;;;;;;15.20;1.58;;;;;;;4.77;100.00;98791.84;4959485;28;20038;-93
2024/01/04 04:14:33;;;;;;;7.43;1.27;;;;;;;4.76;100.00;98799.84;4952448;28;20042;-93
2024/01/04 04:17:16;;;;;;;;;;;;;;;;;;;;;
2024/01/04 04:19:44;;;;;;;7.20;1.15;;;;;;;4.65;100.00;98785.97;4950610;28;20470;-96
2024/01/04 04:22:10;;;;;;;11.63;1.60;;;;;;;4.67;100.00;98791.06;4942750;28;20573;-96
2024/01/04 04:24:36;;;;;;;15.32;2.05;;;;;;;4.65;100.00;98791.22;4956896;29;20035;-96
2024/01/04 04:27:02;;;;;;;11.07;1.23;;;;;;;4.63;100.00;98790.56;4956245;28;20055;-96
2024/01/04 04:29:29;;;;;;;11.38;1.45;;;;;;;4.61;100.00;98786.41;4944683;28;20037;-95
2024/01/04 04:31:57;;;;;;;10.13;1.77;;;;;;;4.56;100.00;98779.84;4941123;28;20039;-96
2024/01/04 04:34:23;;;;;;;14.02;1.58;;;;;;;4.56;100.00;98792.09;4956714;28;20042;-94
2024/01/04 04:36:49;;;;;;;17.90;1.90;;;;;;;4.56;100.00;98789.47;4943323;28;20026;-94
2024/01/04 04:39:15;;;;;;;11.73;1.35;;;;;;;4.51;100.00;98781.25;4930965;28;20173;-93
2024/01/04 04:41:41;;;;;;;16.55;2.00;;;;;;;4.50;100.00;98785.66;4955792;28;20027;-94
2024/01/04 04:44:07;;;;;;;16.70;2.20;;;;;;;4.47;100.00;98786.75;4952247;28;20046;-94
2024/01/04 04:46:33;;;;;;;16.33;1.55;;;;;;;4.47;100.00;98788.56;4942181;28;20065;-94
2024/01/04 04:48:59;;;;;;;8.10;0.85;;;;;;;4.46;100.00;98785.13;4935018;28;20047;-93
2024/01/04 04:51:25;;;;;;;9.63;1.17;;;;;;;4.42;100.00;98775.09;4946764;28;20026;-93
2024/01/04 04:53:53;;;;;;;13.45;1.65;;;;;;;4.50;100.00;98785.66;4952100;28;20026;-93
2024/01/04 04:56:19;;;;;;;14.30;1.52;;;;;;;4.45;100.00;98772.19;4938392;28;20098;-93
2024/01/04 04:58:45;;;;;;;6.45;1.30;;;;;;;4.43;100.00;98774.13;4943253;28;20062;-96
2024/01/04 05:01:13;;;;;;;15.48;1.48;;;;;;;4.46;100.00;98773.81;4961707;28;20027;-96
2024/01/04 05:03:39;;;;;;;7.68;1.10;;;;;;;4.39;100.00;98762.31;4937553;28;20034;-96
2024/01/04 05:06:07;;;;;;;7.97;1.05;;;;;;;4.39;100.00;98771.00;4947934;29;20039;-96
2024/01/04 05:08:33;;;;;;;12.63;1.42;;;;;;;4.33;100.00;98761.91;4954666;28;20031;-93
2024/01/04 05:10:59;;;;;;;11.30;1.08;;;;;;;4.34;100.00;98770.59;4941228;28;20027;-92
2024/01/04 05:13:25;;;;;;;11.60;1.10;;;;;;;4.30;100.00;98771.88;4939916;28;20467;-93
2024/01/04 05:15:51;;;;;;;17.52;2.70;;;;;;;4.26;100.00;98765.25;4962100;28;20022;-93
2024/01/04 05:18:17;;;;;;;14.15;1.52;;;;;;;4.22;100.00;98762.94;4949495;28;20121;-93
2024/01/04 05:20:43;;;;;;;8.43;1.10;;;;;;;4.28;100.00;98776.41;4949818;28;20026;-93
2024/01/04 05:23:09;;;;;;;12.05;2.55;;;;;;;4.26;100.00;98773.94;4943566;28;20061;-93
2024/01/04 05:25:35;;;;;;;4.10;0.80;;;;;;;4.19;100.00;98772.84;4946778;28;20846;-93
2024/01/04 05:28:00;;;;;;;15.52;2.30;;;;;;;4.19;100.00;98772.84;4933507;29;20487;-96
2024/01/04 05:30:27;;;;;;;5.88;1.13;;;;;;;4.19;100.00;98773.69;4957097;28;20047;-96
2024/01/04 05:32:56;;;;;;;11.40;1.95;;;;;;;4.19;100.00;98773.69;4964874;28;20056;-96
2024/01/04 05:35:22;;;;;;;11.95;2.58;;;;;;;4.20;100.00;98780.56;4945434;28;20038;-95
2024/01/04 05:37:48;;;;;;;6.90;1.38;;;;;;;4.24;100.00;98783.72;4961285;28;20246;-93
2024/01/04 05:40:14;;;;;;;9.70;1.20;;;;;;;4.26;100.00;98784.41;4940277;28;20026;-93
2024/01/04 05:42:40;;;;;;;6.60;0.80;;;;;;;4.26;100.00;98786.19;4936589;28;20070;-93
2024/01/04 05:45:07;;;;;;;11.35;2.50;;;;;;;4.26;100.00;98773.94;4947640;28;20144;-93
2024/01/04 05:47:41;;;;;;;10.15;1.60;;;;;;;4.26;100.00;98766.09;4943562;28;20531;-96
2024/01/04 05:50:08;;;;;;;10.93;1.20;;;;;;;4.22;100.00;98765.56;4942231;28;20077;-96
2024/01/04 05:52:36;;;;;;;8.13;0.93;;;;;;;4.28;100.00;98771.19;4962990;28;20030;-96
2024/01/04 05:55:04;;;;;;;3.75;0.75;;;;;;;4.22;100.00;98777.81;4942170;28;20102;-95
2024/01/04 05:57:31;;;;;;;11.38;1.63;;;;;;;4.23;100.00;98776.84;4945806;28;20035;-96
2024/01/04 05:59:57;;;;;;;12.05;1.50;;;;;;;4.19;100.00;98783.31;4942809;28;20030;-96
2024/01/04 06:02:26;;;;;;;13.38;1.75;;;;;;;4.16;100.00;98778.38;4950542;28;20042;-96
2024/01/04 06:04:52;;;;;;;9.60;1.48;;;;;;;4.18;100.00;98781.69;4958554;28;20035;-96
2024/01/04 06:07:18;;;;;;;8.13;1.15;;;;;;;4.14;100.00;98775.09;4955238;28;20046;-96
2024/01/04 06:09:44;;;;;;;14.40;1.20;;;;;;;4.14;100.00;98782.94;4953372;28;20089;-95
2024/01/04 06:12:16;;;;;;;9.82;1.58;;;;;;;4.17;100.00;98788.69;4950956;28;20093;-96
2024/01/04 06:14:45;;;;;;;5.22;0.85;;;;;;;4.08;100.00;98786.94;4935255;28;20051;-96
2024/01/04 06:17:11;;;;;;;12.35;1.10;;;;;;;4.08;100.00;98786.94;4959136;28;20039;-96
2024/01/04 06:19:38;;;;;;;11.55;1.17;;;;;;;4.05;100.00;98789.84;4962314;28;20123;-96
2024/01/04 06:22:04;;;;;;;7.65;1.38;;;;;;;4.02;100.00;98793.56;4945436;28;20109;-93
2024/01/04 06:24:30;;;;;;;8.30;1.33;;;;;;;3.97;100.00;98796.63;4953892;28;20038;-93
2024/01/04 06:26:56;;;;;;;16.38;1.63;;;;;;;3.91;100.00;98801.59;4936969;28;20205;-93
2024/01/04 06:29:22;;;;;;;14.30;1.65;;;;;;;3.75;100.00;98804.78;4941167;28;20430;-95
2024/01/04 06:31:48;;;;;;;14.05;1.42;;;;;;;3.67;100.00;98810.72;4936597;28;20066;-96
2024/01/04 06:34:14;;;;;;;6.38;1.33;;;;;;;3.60;100.00;98806.06;4958357;28;20035;-96
2024/01/04 06:36:40;;;;;;;12.40;1.35;;;;;;;3.54;100.00;98814.44;4968719;28;20048;-96
2024/01/04 06:39:07;;;;;;;12.75;1.67;;;;;;;3.49;100.00;98811.41;4943019;28;20047;-93
2024/01/04 06:41:32;;;;;;;14.18;1.15;;;;;;;3.44;100.00;98811.84;4937704;28;20081;-93
2024/01/04 06:43:59;;;;;;;9.23;1.13;;;;;;;3.38;100.00;98803.75;4943996;28;20173;-94
2024/01/04 06:46:25;;;;;;;8.60;0.98;;;;;;;3.35;100.00;98812.69;4953745;28;20038;-93
2024/01/04 06:48:51;;;;;;;9.48;1.10;;;;;;;3.33;100.00;98804.97;4942579;28;20054;-96
2024/01/04 06:51:17;;;;;;;13.00;2.15;;;;;;;3.36;100.00;98803.88;4958211;28;20043;-96
2024/01/04 06:53:43;;;;;;;11.13;1.20;;;;;;;3.34;100.00;98804.00;4939282;28;20071;-96
2024/01/04 06:56:11;;;;;;;12.43;0.93;;;;;;;3.38;100.00;98804.56;4957259;28;20038;-95
2024/01/04 06:58:37;;;;;;;8.85;1.20;;;;;;;3.39;100.00;98794.94;4941977;28;20035;-96
2024/01/04 07:01:03;;;;;;;14.23;1.38;;;;;;;3.38;100.00;98801.94;4946960;28;20509;-96
2024/01/04 07:03:30;;;;;;;12.30;1.00;;;;;;;3.40;100.00;98799.19;4956157;28;20042;-96
2024/01/04 07:05:56;;;;;;;8.50;1.30;;;;;;;3.43;100.00;98801.53;4938467;28;20098;-96
2024/01/04 07:08:23;;;;;;;13.80;1.10;;;;;;;3.43;100.00;98786.69;4956042;28;20395;-96
2024/01/04 07:10:49;;;;;;;14.35;1.13;;;;;;;3.44;100.00;98787.53;4933145;28;20034;-96
2024/01/04 07:13:15;;;;;;;7.63;1.23;;;;;;;3.42;100.00;98790.28;4954330;28;20043;-96
2024/01/04 07:15:41;;;;;;;11.25;1.00;;;;;;;3.37;100.00;98792.47;4959525;28;20530;-95
2024/01/04 07:18:07;;;;;;;9.13;0.95;;;;;;;3.36;100.00;98785.59;4944141;28;20042;-96
2024/01/04 07:20:41;;;;;;;9.05;1.35;;;;;;;3.38;100.00;98783.66;4943282;28;20081;-96
2024/01/04 07:23:08;;;;;;;11.82;0.70;;;;;;;3.38;100.00;98788.09;4938630;28;21897;-93
2024/01/04 07:25:34;;;;;;;6.28;0.80;;;;;;;3.37;100.00;98797.69;4926377;28;20041;-94
2024/01/04 07:28:00;;;;;;;7.82;1.40;;;;;;;3.31;100.00;98787.81;4954750;28;20392;-96
2024/01/04 07:30:26;;;;;;;9.07;1.10;;;;;;;3.25;100.00;98793.59;4959783;28;20034;-96
2024/01/04 07:32:55;;;;;;;8.15;0.93;;;;;;;3.21;100.00;98798.25;4943329;28;20043;-96
2024/01/04 07:35:23;;;;;;;10.35;1.27;;;;;;;3.16;100.00;98803.06;4958428;28;20046;-96
2024/01/04 07:37:51;;;;;;;4.63;0.80;;;;;;;3.15;100.00;98802.25;4959763;28;20037;-96
2024/01/04 07:40:17;;;;;;;7.30;1.15;;;;;;;3.17;100.00;98808.13;4948602;28;20097;-96
2024/01/04 07:42:43;;;;;;;9.27;1.13;;;;;;;3.17;100.00;98804.72;4947296;28;20038;-94
2024/01/04 07:45:09;;;;;;;5.75;1.00;;;;;;;3.16;100.00;98808.28;4943245;28;20487;-93
2024/01/04 07:47:38;;;;;;;7.75;0.95;;;;;;;3.20;100.00;98809.66;4943448;28;20043;-94
2024/01/04 07:50:04;;;;;;;7.47;0.88;;;;;;;3.25;100.00;98817.09;4946687;28;20042;-89
2024/01/04 07:52:31;;;;;;;9.00;1.27;;;;;;;3.26;100.00;98810.91;4938706;28;20039;-96
2024/01/04 07:54:56;;;;;;;14.48;1.13;;;;;;;3.17;100.00;98802.91;4964341;28;20502;-96
2024/01/04 07:57:22;;;;;;;5.53;1.17;;;;;;;3.16;100.00;98811.72;4943713;28;20043;-94
2024/01/04 07:59:48;;;;;;;6.90;1.05;;;;;;;3.19;100.00;98818.44;4943784;28;20435;-94
2024/01/04 08:02:21;;;;;;;10.57;1.75;;;;;;;3.21;100.00;98804.31;4956705;28;20039;-96
2024/01/04 08:04:54;;;;;;;5.93;0.75;;;;;;;3.21;100.00;98814.75;4962041;28;20047;-96
2024/01/04 08:07:20;;;;;;;17.15;1.50;;;;;;;3.17;100.00;98813.34;4947937;28;20126;-93
2024/01/04 08:09:46;;;;;;;6.18;1.40;;;;;;;3.13;100.00;98808.56;4944824;28;20443;-93
2024/01/04 08:12:12;;;;;;;7.22;1.52;;;;;;;3.06;100.00;98806.50;4961057;28;20030;-96
2024/01/04 08:14:39;;;;;;;6.13;0.80;;;;;;;3.06;100.00;98805.66;4942246;28;20057;-96
2024/01/04 08:17:11;;;;;;;15.00;2.80;;;;;;;3.06;100.00;98803.03;4956454;28;20062;-96
2024/01/04 08:19:40;;;;;;;;;;;;;;;3.07;100.00;98804.72;4950635;28;20042;-96
2024/01/04 08:22:06;;;;;;;10.50;1.17;;;;;;;3.06;100.00;98818.69;4952442;28;19956;-94
2024/01/04 08:24:32;;;;;;;11.18;1.20;;;;;;;3.07;100.00;98818.56;4941819;28;20039;-93
2024/01/04 08:26:58;;;;;;;8.82;1.40;;;;;;;3.03;100.00;98818.97;4961773;28;20106;-94
2024/01/04 08:29:24;;;;;;;12.57;1.38;;;;;;;3.06;100.00;98821.31;4944381;28;20073;-94
2024/01/04 08:31:50;;;;;;;13.45;1.63;;;;;;;3.00;100.00;98820.09;4955755;29;20067;-94
2024/01/04 08:34:16;;;;;;;6.10;0.80;;;;;;;3.05;100.00;98827.50;4960138;28;20043;-96
2024/01/04 08:36:42;;;;;;;11.02;1.13;;;;;;;3.04;100.00;98834.50;4951547;28;20089;-96
2024/01/04 08:39:10;;;;;;;10.48;1.20;;;;;;;3.00;100.00;98835.75;4951540;28;20039;-95
2024/01/04 08:41:36;;;;;;;5.82;0.82;;;;;;;2.90;100.00;98837.53;4963014;28;20035;-96
2024/01/04 08:44:02;;;;;;;6.38;1.10;;;;;;;2.81;100.00;98832.16;4946443;29;20034;-96
2024/01/04 08:46:28;;;;;;;7.75;0.82;;;;;;;2.71;100.00;98839.94;4944173;28;20506;-96
2024/01/04 08:48:54;;;;;;;8.93;2.47;;;;;;;2.71;100.00;98836.50;4954683;28;20043;-94
2024/01/04 08:51:20;;;;;;;11.23;1.25;;;;;;;2.75;100.00;98842.28;4942505;28;20395;-94
2024/01/04 08:53:49;;;;;;;9.02;1.13;;;;;;;2.78;100.00;98837.63;4960292;28;20053;-96
2024/01/04 08:56:15;;;;;;;11.18;1.48;;;;;;;2.81;100.00;98839.97;4948504;28;20050;-96
2024/01/04 08:58:41;;;;;;;10.68;1.08;;;;;;;2.86;100.00;98847.41;4943505;28;20475;-96
2024/01/04 09:01:07;;;;;;;13.45;1.73;;;;;;;2.95;100.00;98840.53;4943833;28;20129;-96
2024/01/04 09:03:33;;;;;;;6.20;0.70;;;;;;;3.01;100.00;98840.00;4940967;28;20102;-94
2024/01/04 09:05:59;;;;;;;8.32;1.15;;;;;;;2.98;100.00;98833.28;4941622;28;20034;-94
2024/01/04 09:08:26;;;;;;;10.30;1.30;;;;;;;3.06;100.00;98839.59;4959055;28;20081;-94
2024/01/04 09:10:52;;;;;;;3.85;0.82;;;;;;;3.00;100.00;98827.91;4944256;28;20031;-93
2024/01/04 09:13:19;;;;;;;5.72;0.70;;;;;;;3.03;100.00;98837.25;4939955;29;20605;-94
2024/01/04 09:15:45;;;;;;;8.82;1.30;;;;;;;3.03;100.00;98839.88;4958536;28;20034;-94
2024/01/04 09:18:11;;;;;;;9.98;1.27;;;;;;;3.04;100.00;98829.28;4957511;28;20510;-94
2024/01/04 09:20:52;;;;;;;8.65;1.55;;;;;;;3.13;100.00;98832.88;4944136;28;20077;-93
2024/01/04 09:23:28;;;;;;;5.55;0.70;;;;;;;3.08;100.00;98828.06;4958960;28;20034;-94
2024/01/04 09:25:54;;;;;;;5.85;1.02;;;;;;;3.07;100.00;98829.00;4958531;28;20067;-93
2024/01/04 09:28:22;;;;;;;3.58;0.70;;;;;;;3.03;100.00;98826.81;4938742;28;20035;-93
2024/01/04 09:34:17;;;;;;;7.20;0.88;;;;;;;3.03;100.00;98835.47;4950064;28;20510;-93
2024/01/04 09:36:43;;;;;;;7.30;1.30;;;;;;;2.99;100.00;98834.09;4954477;28;20035;-94
2024/01/04 09:39:17;;;;;;;7.45;1.25;;;;;;;3.03;100.00;98826.81;4938220;28;20038;-93
2024/01/04 09:41:50;;;;;;;2.65;0.50;;;;;;;2.96;100.00;98829.97;4955646;28;20552;-93
2024/01/04 09:44:18;;;;;;;7.25;0.90;;;;;;;3.01;100.00;98836.59;4957931;28;20043;-93
2024/01/04 09:46:48;;;;;;;8.35;1.60;;;;;;;3.00;100.00;98833.13;4951759;28;20046;-92
2024/01/04 09:49:15;;;;;;;10.63;1.83;;;;;;;3.04;100.00;98837.13;4938756;29;20059;-94
2024/01/04 09:51:42;;;;;;;11.27;1.98;;;;;;;3.10;100.00;98838.38;4952609;28;20031;-92
2024/01/04 09:54:11;;;;;;;8.32;1.45;;;;;;;3.17;100.00;98847.31;4957724;28;20041;-93
2024/01/04 09:56:50;;;;;;;7.00;1.42;;;;;;;3.20;100.00;98833.16;4938128;28;20122;-93
2024/01/04 09:59:16;;;;;;;8.77;1.77;;;;;;;3.17;100.00;98826.41;4957985;28;20047;-93
2024/01/04 10:01:43;;;;;;;8.50;1.33;;;;;;;3.22;100.00;98833.84;4945301;28;20074;-93
2024/01/04 10:04:14;;;;;;;9.13;1.98;;;;;;;3.22;100.00;98826.00;4939437;28;20094;-92
2024/01/04 10:06:45;;;;;;;8.93;2.03;;;;;;;3.27;100.00;98831.66;4936483;29;20129;-92
2024/01/04 10:09:17;;;;;;;7.50;1.90;;;;;;;3.38;100.00;98824.66;4952279;28;20039;-92
2024/01/04 10:12:11;;;;;;;8.15;2.10;;;;;;;3.50;100.00;98831.38;4955137;28;20035;-93
2024/01/04 10:14:37;;;;;;;7.97;1.35;;;;;;;3.53;100.00;98830.25;4940440;28;20038;-93
2024/01/04 10:17:04;;;;;;;6.72;1.15;;;;;;;3.59;100.00;98829.72;4938256;28;20035;-92
2024/01/04 10:19:34;;;;;;;9.90;1.95;;;;;;;3.62;100.00;98825.97;4950757;28;20039;-92
2024/01/04 10:22:08;;;;;;;8.43;1.48;;;;;;;3.65;100.00;98828.31;4950205;28;20088;-93
2024/01/04 10:24:41;;;;;;;4.53;1.10;;;;;;;3.71;100.00;98841.66;4942078;28;20038;-92
2024/01/04 10:27:11;;;;;;;5.43;1.65;;;;;;;3.76;100.00;98843.03;4954323;28;20145;-96
2024/01/04 10:29:45;;;;;;;;;;;;;;;3.75;100.00;98838.75;4962243;28;20054;-96
2024/01/04 10:32:13;;;;;;;10.80;2.20;;;;;;;3.75;100.00;98850.06;4947566;28;19973;-92
2024/01/04 10:34:39;;;;;;;10.10;2.13;;;;;;;3.76;100.00;98849.06;4937671;28;20130;-93
2024/01/04 10:37:13;;;;;;;5.28;1.50;;;;;;;3.88;100.00;98848.94;4950547;28;20047;-92
2024/01/04 10:39:55;;;;;;;6.07;1.60;;;;;;;3.78;100.00;98844.53;4931961;28;20130;-93
2024/01/04 10:42:22;;;;;;;13.43;2.00;;;;;;;3.81;100.00;98844.25;4940406;28;20097;-94
2024/01/04 10:44:52;;;;;;;8.05;1.40;;;;;;;3.86;100.00;98843.84;4954106;28;20538;-94
2024/01/04 10:47:18;;;;;;;12.10;2.38;;;;;;;3.94;100.00;98845.75;4938485;28;20038;-92
2024/01/04 10:49:48;;;;;;;11.68;2.05;;;;;;;4.08;100.00;98850.53;4951749;28;20435;-93
2024/01/04 10:52:16;;;;;;;7.28;1.10;;;;;;;4.13;100.00;98847.50;4938370;28;20031;-95
2024/01/04 10:54:46;;;;;;;10.13;1.63;;;;;;;4.20;100.00;98845.13;4949568;28;20044;-96
2024/01/04 10:57:13;;;;;;;9.50;2.05;;;;;;;4.28;100.00;98837.41;4958376;28;20054;-96
2024/01/04 10:59:39;;;;;;;11.30;1.98;;;;;;;4.35;100.00;98842.88;4967495;23;20062;-92
2024/01/04 11:02:09;;;;;;;7.68;2.15;;;;;;;4.44;100.00;98843.81;4932001;28;20121;-93
2024/01/04 11:04:36;;;;;;;10.27;1.73;;;;;;;4.48;100.00;98847.78;4940582;23;20522;-94
2024/01/04 11:07:03;;;;;;;9.45;1.83;;;;;;;4.53;100.00;98842.09;4936139;28;20054;-93
2024/01/04 11:09:31;;;;;;;5.13;1.70;;;;;;;4.63;100.00;98844.69;4953759;28;20042;-93
2024/01/04 11:11:59;;;;;;;8.02;1.55;;;;;;;4.68;100.00;98839.84;4950367;28;20502;-94
2024/01/04 11:14:25;;;;;;;10.57;2.20;;;;;;;4.79;100.00;98825.72;4956245;28;20041;-93
2024/01/04 11:16:57;;;;;;;33.28;16.40;;;;;;;4.92;100.00;98825.38;4950034;28;20031;-93
2024/01/04 11:19:41;;;;;;;24.90;9.73;;;;;;;5.02;100.00;98825.28;4940178;28;20109;-93
2024/01/04 11:22:10;;;;;;;68.65;33.28;;;;;;;5.12;100.00;98827.84;4955273;28;20177;-93
2024/01/04 11:24:58;;;;;;;25.38;11.45;;;;;;;5.20;100.00;98820.06;4941748;28;20034;-93
2024/01/04 11:27:25;;;;;;;14.27;6.95;;;;;;;5.24;100.00;98823.22;4951555;28;20042;-93
2024/01/04 11:29:51;;;;;;;9.07;3.35;;;;;;;5.30;100.00;98817.38;4937938;28;20369;-94
2024/01/04 11:32:18;;;;;;;13.90;6.38;;;;;;;5.37;100.00;98810.56;4945120;28;20467;-93
2024/01/04 11:34:44;;;;;;;9.88;2.20;;;;;;;5.43;100.00;98806.53;4952147;28;20026;-93
2024/01/04 11:37:18;;;;;;;11.13;4.30;;;;;;;5.54;100.00;98803.63;4933655;28;20126;-82
2024/01/04 11:40:03;;;;;;;33.10;15.30;;;;;;;5.61;100.00;98797.78;4932589;28;20120;-93
2024/01/04 11:42:37;;;;;;;156.05;83.78;;;;;;;5.67;100.00;98805.88;4934942;28;20028;-94
2024/01/04 11:45:05;;;;;;;33.10;19.20;;;;;;;5.68;100.00;98801.44;4938981;28;20443;-94
2024/01/04 11:47:43;;;;;;;20.75;6.20;;;;;;;5.75;100.00;98799.06;4970123;28;20018;-93
2024/01/04 11:50:22;;;;;;;21.17;10.25;;;;;;;5.77;100.00;98795.28;4956731;28;20039;-85
2024/01/04 11:52:48;;;;;;;12.43;2.92;;;;;;;5.77;100.00;98790.03;4937364;28;20061;-94
2024/01/04 11:55:25;;;;;;;9.52;3.38;;;;;;;5.89;100.00;98797.66;4959229;28;20054;-94
2024/01/04 11:58:14;;;;;;;12.80;3.58;;;;;;;5.95;100.00;98784.75;4948567;28;20098;-93
2024/01/04 12:00:48;;;;;;;10.93;3.17;;;;;;;6.00;100.00;98784.28;4932931;28;20081;-94
2024/01/04 12:03:20;;;;;;;8.10;2.33;;;;;;;6.05;100.00;98782.03;4930741;28;20128;-94
2024/01/04 12:05:51;;;;;;;15.20;4.13;;;;;;;6.12;100.00;98786.66;4958564;28;20050;-94
2024/01/04 12:08:28;;;;;;;16.58;3.50;;;;;;;6.26;100.00;98787.88;4959608;28;20495;-94
2024/01/04 12:10:57;;;;;;;18.95;6.85;;;;;;;6.32;100.00;98788.06;4951967;28;20039;-94
2024/01/04 12:13:23;;;;;;;9.00;2.10;;;;;;;6.39;100.00;98783.00;4950766;28;20036;-94
2024/01/04 12:15:51;;;;;;;9.45;2.38;;;;;;;6.50;100.00;98781.09;4934264;28;20039;-94
2024/01/04 12:18:17;;;;;;;10.23;2.50;;;;;;;6.58;100.00;98778.47;4938787;28;20034;-94
2024/01/04 12:20:46;;;;;;;11.98;2.00;;;;;;;6.65;100.00;98770.78;4946548;28;20033;-94
2024/01/04 12:23:12;;;;;;;21.20;2.72;;;;;;;6.73;100.00;98775.22;4963869;28;20030;-94
2024/01/04 12:25:40;;;;;;;11.50;1.90;;;;;;;6.79;100.00;98769.31;4953341;28;20037;-94